createdAt,value
2019-02-17T00:00:29.719Z,21.67
2019-02-17T00:02:57.879Z,21.80
2019-02-17T00:05:26.129Z,24.23
2019-02-17T00:07:54.582Z,25.30
2019-02-17T00:10:22.769Z,19.93
2019-02-17T00:12:51.159Z,23.10
2019-02-17T00:15:19.524Z,24.33
2019-02-17T00:17:47.689Z,18.83
2019-02-17T00:20:16.001Z,21.83
2019-02-17T00:22:44.334Z,20.87
2019-02-17T00:25:12.540Z,24.47
2019-02-17T00:27:40.895Z,24.93
2019-02-17T00:30:09.129Z,24.33
2019-02-17T00:32:37.451Z,26.20
2019-02-17T00:35:05.627Z,22.77
2019-02-17T00:37:33.942Z,25.27
2019-02-17T00:40:02.086Z,21.93
2019-02-17T00:42:30.158Z,25.00
2019-02-17T00:44:58.482Z,26.70
2019-02-17T00:47:26.681Z,24.43
2019-02-17T00:49:54.867Z,21.67
2019-02-17T00:52:24.088Z,23.40
2019-02-17T00:54:52.258Z,21.50
2019-02-17T00:57:22.447Z,23.50
2019-02-17T00:59:50.690Z,25.47
2019-02-17T01:02:18.903Z,24.07
2019-02-17T01:04:47.121Z,25.80
2019-02-17T01:07:15.478Z,24.30
2019-02-17T01:09:43.731Z,22.37
2019-02-17T01:12:12.014Z,23.83
2019-02-17T01:14:59.230Z,25.37
2019-02-17T01:17:27.542Z,24.63
2019-02-17T01:19:55.887Z,23.37
2019-02-17T01:22:24.417Z,24.23
2019-02-17T01:24:52.539Z,24.80
2019-02-17T01:27:20.728Z,23.97
2019-02-17T01:29:48.953Z,24.40
2019-02-17T01:32:17.265Z,26.53
2019-02-17T01:34:45.762Z,27.63
2019-02-17T01:37:14.124Z,25.20
2019-02-17T01:39:51.206Z,24.33
2019-02-17T01:42:19.378Z,22.13
2019-02-17T01:44:47.555Z,21.47
2019-02-17T01:47:15.723Z,21.97
2019-02-17T01:49:44.158Z,22.77
2019-02-17T01:52:12.485Z,22.57
2019-02-17T01:54:40.591Z,24.23
2019-02-17T01:57:10.298Z,23.10
2019-02-17T01:59:39.573Z,21.80
2019-02-17T02:02:07.762Z,23.47
2019-02-17T02:04:36.031Z,26.93
2019-02-17T02:07:04.504Z,22.83
2019-02-17T02:09:32.776Z,24.23
2019-02-17T02:12:00.965Z,25.20
2019-02-17T02:14:29.406Z,25.37
2019-02-17T02:16:57.577Z,25.07
2019-02-17T02:19:25.906Z,26.37
2019-02-17T02:21:54.239Z,26.40
2019-02-17T02:24:22.523Z,26.00
2019-02-17T02:26:50.763Z,25.03
2019-02-17T02:29:18.966Z,23.60
2019-02-17T02:31:47.141Z,22.97
2019-02-17T02:34:15.178Z,22.47
2019-02-17T02:36:43.282Z,24.43
2019-02-17T02:39:11.454Z,23.00
2019-02-17T02:41:58.782Z,21.07
2019-02-17T02:44:27.068Z,20.33
2019-02-17T02:46:55.334Z,21.10
2019-02-17T02:49:23.459Z,21.13
2019-02-17T02:51:51.688Z,22.07
2019-02-17T02:54:19.853Z,20.53
2019-02-17T02:56:50.904Z,21.13
2019-02-17T02:59:19.057Z,19.37
2019-02-17T03:01:47.230Z,19.57
2019-02-17T03:04:15.483Z,22.27
2019-02-17T03:06:47.160Z,21.37
2019-02-17T03:09:15.237Z,21.50
2019-02-17T03:11:43.464Z,20.77
2019-02-17T03:14:11.686Z,20.77
2019-02-17T03:16:39.897Z,18.60
2019-02-17T03:19:08.086Z,22.43
2019-02-17T03:21:36.412Z,20.73
2019-02-17T03:24:04.506Z,21.83
2019-02-17T03:26:32.744Z,20.30
2019-02-17T03:29:00.924Z,19.53
2019-02-17T03:31:29.100Z,17.23
2019-02-17T03:33:57.418Z,18.17
2019-02-17T03:36:25.751Z,20.40
2019-02-17T03:38:53.928Z,19.73
2019-02-17T03:41:22.073Z,20.63
2019-02-17T03:43:50.275Z,16.13
2019-02-17T03:46:18.450Z,16.77
2019-02-17T03:48:46.906Z,15.33
2019-02-17T03:51:14.996Z,17.23
2019-02-17T03:53:43.174Z,17.33
2019-02-17T03:56:11.768Z,17.90
2019-02-17T03:58:40.019Z,17.17
2019-02-17T04:01:08.199Z,16.47
2019-02-17T04:03:38.293Z,16.70
2019-02-17T04:06:06.614Z,18.43
2019-02-17T04:08:35.150Z,16.43
2019-02-17T04:11:05.565Z,16.97
2019-02-17T04:13:33.897Z,16.70
2019-02-17T04:16:02.172Z,16.17
2019-02-17T04:18:30.446Z,16.23
2019-02-17T04:20:58.707Z,16.53
2019-02-17T04:23:31.335Z,13.47
2019-02-17T04:25:57.136Z,14.07
2019-02-17T04:28:25.375Z,15.20
2019-02-17T04:30:53.565Z,13.33
2019-02-17T04:33:21.901Z,13.07
2019-02-17T04:35:50.322Z,15.33
2019-02-17T04:38:18.627Z,14.97
2019-02-17T04:40:47.954Z,11.63
2019-02-17T04:43:16.055Z,15.83
2019-02-17T04:45:44.326Z,15.17
2019-02-17T04:48:12.561Z,14.43
2019-02-17T04:50:40.787Z,11.87
2019-02-17T04:53:08.982Z,12.20
2019-02-17T04:55:39.454Z,13.33
2019-02-17T04:58:07.790Z,14.03
2019-02-17T05:00:40.325Z,13.47
2019-02-17T05:03:05.915Z,15.80
2019-02-17T05:05:35.755Z,12.93
2019-02-17T05:08:04.034Z,13.27
2019-02-17T05:10:32.434Z,13.90
2019-02-17T05:13:00.803Z,15.43
2019-02-17T05:15:29.090Z,12.33
2019-02-17T05:17:57.403Z,16.03
2019-02-17T05:20:25.629Z,17.33
2019-02-17T05:22:53.893Z,13.70
2019-02-17T05:25:22.124Z,15.03
2019-02-17T05:27:50.443Z,13.47
2019-02-17T05:30:18.637Z,15.57
2019-02-17T05:32:46.858Z,14.33
2019-02-17T05:35:15.147Z,13.23
2019-02-17T05:37:43.339Z,44.97
2019-02-17T05:40:12.803Z,33.47
2019-02-17T05:42:41.015Z,37.80
2019-02-17T05:45:09.210Z,51.80
2019-02-17T05:47:37.395Z,83.10
2019-02-17T05:50:05.759Z,97.80
2019-02-17T05:52:34.015Z,48.03
2019-02-17T05:55:02.259Z,33.13
2019-02-17T05:57:30.492Z,23.77
2019-02-17T05:59:58.737Z,21.33
2019-02-17T06:02:26.999Z,17.50
2019-02-17T06:04:55.009Z,17.87
2019-02-17T06:07:23.156Z,16.47
2019-02-17T06:09:51.403Z,33.57
2019-02-17T06:12:19.538Z,179.40
2019-02-17T06:14:47.898Z,147.60
2019-02-17T06:17:16.131Z,87.63
2019-02-17T06:19:51.810Z,67.53
2019-02-17T06:22:20.120Z,59.87
2019-02-17T06:24:48.770Z,36.63
2019-02-17T06:27:17.171Z,31.67
2019-02-17T06:29:45.370Z,54.97
2019-02-17T06:32:13.594Z,74.57
2019-02-17T06:34:41.884Z,80.30
2019-02-17T06:37:10.211Z,67.03
2019-02-17T06:39:38.753Z,48.57
2019-02-17T06:42:07.125Z,39.33
2019-02-17T06:44:35.471Z,36.03
2019-02-17T06:47:05.349Z,35.10
2019-02-17T06:49:33.585Z,35.67
2019-02-17T06:52:01.830Z,35.77
2019-02-17T06:54:29.877Z,41.33
2019-02-17T06:57:01.695Z,48.13
2019-02-17T06:59:55.001Z,48.37
2019-02-17T07:02:23.211Z,66.27
2019-02-17T07:05:11.114Z,69.13
2019-02-17T07:07:39.352Z,76.10
2019-02-17T07:10:08.635Z,78.47
2019-02-17T07:12:36.578Z,79.97
2019-02-17T07:15:04.513Z,83.17
2019-02-17T07:17:32.731Z,78.87
2019-02-17T07:20:00.876Z,75.67
2019-02-17T07:22:29.082Z,73.17
2019-02-17T07:24:57.251Z,67.67
2019-02-17T07:27:25.498Z,63.80
2019-02-17T07:29:53.701Z,59.37
2019-02-17T07:32:21.874Z,64.73
2019-02-17T07:34:50.106Z,71.23
2019-02-17T07:37:19.420Z,64.40
2019-02-17T07:39:47.367Z,57.87
2019-02-17T07:42:15.304Z,61.47
2019-02-17T07:44:43.818Z,56.67
2019-02-17T07:47:12.027Z,51.50
2019-02-17T07:49:40.341Z,46.57
2019-02-17T07:52:08.485Z,48.23
2019-02-17T07:54:36.290Z,47.23
2019-02-17T07:57:04.707Z,43.60
2019-02-17T07:59:32.698Z,41.33
2019-02-17T08:02:00.872Z,44.37
2019-02-17T08:04:29.103Z,44.70
2019-02-17T08:06:57.318Z,43.33
2019-02-17T08:09:25.712Z,51.33
2019-02-17T08:11:54.029Z,50.13
2019-02-17T08:14:22.237Z,47.60
2019-02-17T08:16:50.618Z,47.13
2019-02-17T08:19:18.764Z,46.43
2019-02-17T08:21:46.978Z,47.37
2019-02-17T08:24:15.172Z,44.30
2019-02-17T08:26:43.398Z,43.52
2019-02-17T08:29:11.503Z,38.80
2019-02-17T08:31:39.757Z,37.40
2019-02-17T08:34:09.008Z,38.63
2019-02-17T08:36:37.239Z,29.95
2019-02-17T08:39:05.532Z,25.08
2019-02-17T08:41:33.856Z,24.18
2019-02-17T08:44:02.169Z,24.23
2019-02-17T08:46:30.361Z,31.02
2019-02-17T08:48:58.582Z,32.23
2019-02-17T08:51:26.895Z,39.38
2019-02-17T08:53:55.138Z,36.30
2019-02-17T08:56:23.410Z,37.13
2019-02-17T08:58:51.623Z,30.40
2019-02-17T09:01:19.788Z,28.30
2019-02-17T09:03:48.076Z,25.75
2019-02-17T09:06:16.131Z,22.95
2019-02-17T09:08:44.416Z,23.92
2019-02-17T09:11:12.665Z,22.77
2019-02-17T09:13:41.058Z,21.97
2019-02-17T09:16:09.546Z,23.17
2019-02-17T09:18:37.837Z,18.83
2019-02-17T09:21:05.930Z,19.57
2019-02-17T09:23:34.161Z,17.70
2019-02-17T09:26:02.581Z,18.57
2019-02-17T09:28:30.814Z,16.10
2019-02-17T09:30:59.011Z,15.53
2019-02-17T09:33:27.185Z,16.50
2019-02-17T09:35:55.654Z,18.07
2019-02-17T09:38:23.814Z,15.67
2019-02-17T09:40:52.064Z,17.27
2019-02-17T09:43:20.430Z,18.80
2019-02-17T09:45:48.797Z,15.60
2019-02-17T09:48:16.910Z,12.27
2019-02-17T09:50:45.398Z,10.50
2019-02-17T09:53:13.570Z,13.77
2019-02-17T09:55:41.827Z,9.27
2019-02-17T09:58:10.727Z,10.43
2019-02-17T10:00:38.922Z,11.10
2019-02-17T10:03:07.410Z,12.83
2019-02-17T10:05:35.713Z,11.07
2019-02-17T10:08:04.374Z,14.33
2019-02-17T10:10:32.585Z,13.43
2019-02-17T10:13:01.374Z,13.83
2019-02-17T10:15:30.037Z,13.47
2019-02-17T10:17:58.239Z,10.63
2019-02-17T10:20:26.461Z,9.98
2019-02-17T10:22:54.745Z,9.78
2019-02-17T10:25:23.817Z,10.98
2019-02-17T10:27:51.994Z,11.78
2019-02-17T10:30:20.082Z,12.47
2019-02-17T10:32:48.471Z,11.97
2019-02-17T10:35:16.717Z,9.83
2019-02-17T10:37:44.944Z,10.55
2019-02-17T10:40:13.657Z,11.97
2019-02-17T10:42:42.063Z,9.68
2019-02-17T10:45:10.715Z,8.73
2019-02-17T10:47:38.995Z,10.95
2019-02-17T10:50:08.375Z,8.88
2019-02-17T10:52:36.585Z,9.98
2019-02-17T10:55:04.727Z,9.43
2019-02-17T10:57:32.947Z,10.63
2019-02-17T11:00:01.127Z,8.70
2019-02-17T11:02:29.351Z,12.37
2019-02-17T11:04:57.582Z,10.78
2019-02-17T11:07:25.833Z,9.53
2019-02-17T11:09:54.080Z,10.10
2019-02-17T11:12:23.635Z,10.45
2019-02-17T11:14:54.840Z,9.80
2019-02-17T11:17:23.116Z,9.98
2019-02-17T11:19:51.362Z,10.45
2019-02-17T11:22:23.050Z,11.28
2019-02-17T11:24:49.825Z,13.10
2019-02-17T11:27:17.915Z,14.15
2019-02-17T11:29:45.952Z,13.50
2019-02-17T11:32:14.182Z,14.23
2019-02-17T11:34:42.481Z,14.93
2019-02-17T11:37:29.739Z,13.88
2019-02-17T11:39:57.991Z,18.05
2019-02-17T11:42:26.160Z,14.60
2019-02-17T11:44:54.434Z,15.65
2019-02-17T11:47:23.380Z,17.05
2019-02-17T11:49:51.610Z,17.50
2019-02-17T11:52:21.017Z,22.48
2019-02-17T11:54:49.296Z,19.48
2019-02-17T11:57:17.470Z,19.70
2019-02-17T11:59:45.859Z,21.62
2019-02-17T12:02:24.439Z,19.40
2019-02-17T12:04:44.122Z,18.17
2019-02-17T12:07:12.733Z,15.28
2019-02-17T12:09:40.932Z,16.57
2019-02-17T12:12:09.263Z,14.18
2019-02-17T12:14:37.519Z,15.13
2019-02-17T12:17:05.730Z,15.00
2019-02-17T12:19:33.906Z,15.03
2019-02-17T12:22:20.367Z,15.90
2019-02-17T12:24:57.125Z,15.28
2019-02-17T12:27:41.270Z,11.83
2019-02-17T12:30:13.382Z,13.43
2019-02-17T12:32:41.674Z,14.03
2019-02-17T12:35:10.085Z,13.45
2019-02-17T12:37:38.366Z,11.25
2019-02-17T12:40:09.921Z,11.90
2019-02-17T12:42:38.199Z,12.28
2019-02-17T12:45:09.619Z,12.05
2019-02-17T12:47:37.760Z,11.68
2019-02-17T12:50:06.510Z,12.98
2019-02-17T12:52:34.722Z,11.40
2019-02-17T12:55:02.891Z,13.70
2019-02-17T12:57:31.126Z,11.95
2019-02-17T12:59:59.671Z,11.20
2019-02-17T13:02:27.997Z,12.80
2019-02-17T13:04:56.381Z,10.08
2019-02-17T13:07:24.697Z,11.12
2019-02-17T13:09:53.124Z,11.10
2019-02-17T13:12:21.489Z,10.10
2019-02-17T13:14:49.812Z,10.82
2019-02-17T13:17:18.132Z,10.98
2019-02-17T13:19:46.444Z,12.78
2019-02-17T13:22:14.645Z,11.93
2019-02-17T13:24:42.916Z,12.68
2019-02-17T13:27:11.284Z,13.20
2019-02-17T13:29:42.131Z,11.97
2019-02-17T13:32:10.205Z,10.27
2019-02-17T13:34:38.699Z,36.87
2019-02-17T13:37:07.075Z,13.60
2019-02-17T13:39:36.169Z,20.33
2019-02-17T13:42:04.385Z,14.03
2019-02-17T13:44:32.594Z,14.43
2019-02-17T13:47:00.704Z,18.53
2019-02-17T13:49:28.898Z,14.20
2019-02-17T13:51:57.159Z,24.63
2019-02-17T13:54:25.519Z,30.40
2019-02-17T13:56:53.852Z,12.60
2019-02-17T13:59:22.046Z,11.47
2019-02-17T14:01:50.250Z,13.23
2019-02-17T14:04:18.559Z,13.27
2019-02-17T14:06:46.768Z,12.37
2019-02-17T14:09:14.881Z,11.93
2019-02-17T14:11:43.197Z,13.90
2019-02-17T14:14:11.389Z,12.67
2019-02-17T14:16:39.519Z,12.57
2019-02-17T14:19:07.987Z,15.60
2019-02-17T14:21:36.372Z,11.50
2019-02-17T14:24:04.620Z,11.77
2019-02-17T14:26:32.958Z,12.50
2019-02-17T14:29:01.159Z,11.83
2019-02-17T14:31:29.226Z,10.50
2019-02-17T14:33:58.756Z,12.00
2019-02-17T14:36:27.043Z,12.30
2019-02-17T14:38:55.297Z,13.77
2019-02-17T14:41:23.644Z,12.70
2019-02-17T14:43:51.900Z,16.03
2019-02-17T14:46:20.136Z,13.83
2019-02-17T14:48:48.565Z,10.63
2019-02-17T14:51:19.834Z,12.07
2019-02-17T14:53:48.028Z,14.13
2019-02-17T14:56:16.173Z,11.50
2019-02-17T14:58:44.578Z,14.20
2019-02-17T15:01:12.950Z,14.77
2019-02-17T15:03:42.166Z,11.67
2019-02-17T15:06:10.413Z,13.93
2019-02-17T15:08:38.701Z,9.80
2019-02-17T15:11:07.179Z,13.70
2019-02-17T15:13:35.383Z,14.83
2019-02-17T15:16:03.642Z,14.10
2019-02-17T15:18:34.576Z,12.17
2019-02-17T15:21:02.826Z,13.37
2019-02-17T15:23:31.001Z,11.53
2019-02-17T15:25:59.421Z,15.00
2019-02-17T15:28:27.683Z,10.77
2019-02-17T15:30:57.842Z,11.33
2019-02-17T15:33:28.907Z,12.37
2019-02-17T15:35:57.209Z,14.03
2019-02-17T15:38:25.407Z,13.53
2019-02-17T15:40:53.823Z,13.10
2019-02-17T15:43:22.020Z,11.17
2019-02-17T15:45:50.195Z,12.60
2019-02-17T15:48:18.620Z,11.20
2019-02-17T15:50:46.883Z,14.80
2019-02-17T15:53:15.221Z,13.10
2019-02-17T15:55:43.578Z,12.00
2019-02-17T15:58:11.772Z,14.73
2019-02-17T16:00:40.113Z,11.80
2019-02-17T16:03:08.307Z,12.53
2019-02-17T16:05:36.499Z,11.30
2019-02-17T16:08:04.774Z,14.40
2019-02-17T16:10:33.052Z,11.70
2019-02-17T16:13:01.224Z,12.83
2019-02-17T16:15:29.600Z,11.20
2019-02-17T16:17:57.845Z,12.17
2019-02-17T16:20:26.255Z,10.70
2019-02-17T16:22:54.422Z,10.73
2019-02-17T16:25:22.585Z,14.10
2019-02-17T16:27:50.777Z,12.60
2019-02-17T16:30:19.039Z,11.80
2019-02-17T16:32:47.174Z,8.90
2019-02-17T16:35:15.418Z,11.57
2019-02-17T16:37:43.696Z,11.13
2019-02-17T16:40:12.111Z,12.13
2019-02-17T16:42:40.216Z,10.73
2019-02-17T16:45:09.834Z,14.37
2019-02-17T16:47:38.021Z,10.83
2019-02-17T16:50:08.537Z,11.40
2019-02-17T16:52:36.705Z,13.07
2019-02-17T16:55:05.251Z,8.97
2019-02-17T16:57:33.439Z,11.77
2019-02-17T17:00:01.639Z,9.57
2019-02-17T17:02:29.961Z,12.43
2019-02-17T17:04:58.184Z,17.07
2019-02-17T17:07:26.557Z,11.00
2019-02-17T17:09:54.789Z,14.00
2019-02-17T17:12:24.861Z,13.50
2019-02-17T17:14:53.251Z,12.30
2019-02-17T17:17:21.683Z,16.30
2019-02-17T17:19:49.874Z,14.73
2019-02-17T17:22:18.082Z,11.93
2019-02-17T17:24:46.408Z,18.20
2019-02-17T17:27:14.833Z,14.53
2019-02-17T17:29:43.313Z,15.27
2019-02-17T17:32:11.564Z,14.20
2019-02-17T17:34:39.658Z,13.73
2019-02-17T17:37:08.020Z,16.13
2019-02-17T17:39:36.261Z,14.97
2019-02-17T17:42:04.470Z,16.23
2019-02-17T17:44:32.922Z,17.60
2019-02-17T17:47:01.052Z,18.83
2019-02-17T17:49:29.423Z,18.23
2019-02-17T17:51:57.569Z,21.57
2019-02-17T17:54:25.802Z,19.27
2019-02-17T17:56:54.022Z,20.20
2019-02-17T17:59:22.428Z,22.03
2019-02-17T18:01:50.842Z,23.20
2019-02-17T18:04:18.920Z,24.03
2019-02-17T18:06:47.227Z,23.17
2019-02-17T18:09:15.645Z,37.50
2019-02-17T18:11:43.981Z,41.87
2019-02-17T18:14:12.140Z,38.87
2019-02-17T18:16:40.348Z,35.97
2019-02-17T18:19:08.417Z,39.57
2019-02-17T18:21:36.613Z,44.07
2019-02-17T18:24:04.910Z,40.97
2019-02-17T18:26:33.689Z,36.93
2019-02-17T18:29:01.953Z,40.07
2019-02-17T18:31:30.250Z,40.40
2019-02-17T18:33:58.685Z,42.93
2019-02-17T18:36:26.942Z,39.43
2019-02-17T18:38:55.210Z,38.67
2019-02-17T18:41:23.018Z,40.93
2019-02-17T18:43:51.256Z,45.12
2019-02-17T18:46:19.545Z,38.57
2019-02-17T18:48:47.365Z,47.03
2019-02-17T18:51:15.731Z,41.40
2019-02-17T18:53:43.992Z,40.03
2019-02-17T18:56:12.328Z,37.37
2019-02-17T18:58:40.599Z,39.17
2019-02-17T19:01:08.921Z,41.80
2019-02-17T19:03:37.258Z,40.30
2019-02-17T19:06:05.462Z,44.50
2019-02-17T19:08:33.845Z,39.17
2019-02-17T19:11:02.004Z,37.57
2019-02-17T19:13:30.343Z,38.37
2019-02-17T19:15:58.616Z,41.07
2019-02-17T19:18:26.822Z,43.27
2019-02-17T19:20:54.994Z,36.07
2019-02-17T19:23:23.419Z,39.47
2019-02-17T19:25:51.685Z,38.33
2019-02-17T19:28:19.719Z,38.57
2019-02-17T19:30:47.943Z,38.63
2019-02-17T19:33:16.052Z,47.77
2019-02-17T19:35:44.251Z,45.20
2019-02-17T19:38:12.561Z,51.40
2019-02-17T19:40:40.672Z,53.13
2019-02-17T19:43:09.461Z,54.43
2019-02-17T19:45:37.353Z,48.97
2019-02-17T19:48:05.401Z,45.97
2019-02-17T19:50:33.719Z,45.23
2019-02-17T19:53:02.113Z,44.80
2019-02-17T19:55:30.332Z,38.53
2019-02-17T19:57:58.513Z,43.40
2019-02-17T20:00:26.745Z,39.10
2019-02-17T20:03:23.444Z,40.27
2019-02-17T20:05:56.131Z,37.90
2019-02-17T20:08:24.476Z,38.33
2019-02-17T20:10:52.777Z,33.03
2019-02-17T20:13:21.406Z,35.97
2019-02-17T20:15:49.702Z,37.10
2019-02-17T20:18:18.131Z,32.90
2019-02-17T20:20:46.405Z,37.33
2019-02-17T20:23:14.862Z,33.83
2019-02-17T20:25:43.354Z,30.30
2019-02-17T20:28:11.493Z,32.37
2019-02-17T20:30:39.674Z,34.80
2019-02-17T20:33:08.173Z,29.87
2019-02-17T20:35:36.801Z,31.80
2019-02-17T20:38:05.210Z,30.67
2019-02-17T20:40:34.120Z,34.13
2019-02-17T20:43:02.449Z,43.00
2019-02-17T20:45:30.638Z,37.13
2019-02-17T20:47:58.826Z,30.83
2019-02-17T20:50:27.316Z,31.77
2019-02-17T20:52:55.628Z,27.63
2019-02-17T20:55:23.980Z,26.83
2019-02-17T20:58:11.220Z,29.43
2019-02-17T21:00:39.474Z,27.93
2019-02-17T21:03:07.706Z,27.10
2019-02-17T21:05:36.082Z,26.20
2019-02-17T21:08:04.384Z,27.20
2019-02-17T21:10:33.109Z,26.90
2019-02-17T21:13:01.940Z,24.33
2019-02-17T21:15:30.833Z,25.77
2019-02-17T21:18:00.738Z,22.60
2019-02-17T21:20:30.520Z,21.57
2019-02-17T21:23:00.306Z,20.53
2019-02-17T21:25:29.974Z,22.30
2019-02-17T21:28:00.153Z,23.77
2019-02-17T21:30:29.249Z,19.90
2019-02-17T21:32:57.692Z,16.07
2019-02-17T21:35:26.380Z,17.70
2019-02-17T21:37:54.999Z,16.53
2019-02-17T21:40:23.253Z,15.93
2019-02-17T21:42:51.570Z,13.77
2019-02-17T21:45:19.674Z,16.90
2019-02-17T21:47:47.859Z,14.87
2019-02-17T21:50:16.124Z,14.93
2019-02-17T21:52:44.303Z,11.40
2019-02-17T21:55:12.608Z,13.87
2019-02-17T21:57:40.933Z,13.60
2019-02-17T22:00:13.057Z,12.47
2019-02-17T22:02:41.272Z,13.13
2019-02-17T22:05:09.640Z,15.60
2019-02-17T22:07:37.850Z,16.97
2019-02-17T22:10:06.951Z,14.83
2019-02-17T22:12:34.989Z,12.60
2019-02-17T22:15:03.290Z,13.87
2019-02-17T22:17:31.461Z,13.60
2019-02-17T22:19:59.860Z,12.77
2019-02-17T22:22:28.119Z,11.30
2019-02-17T22:24:56.389Z,15.07
2019-02-17T22:27:24.546Z,14.77
2019-02-17T22:29:52.654Z,12.03
2019-02-17T22:32:22.045Z,12.57
2019-02-17T22:34:50.290Z,12.30
2019-02-17T22:37:18.508Z,17.07
2019-02-17T22:39:46.672Z,18.30
2019-02-17T22:42:15.020Z,16.23
2019-02-17T22:44:43.420Z,17.30
2019-02-17T22:47:11.595Z,16.37
2019-02-17T22:49:39.900Z,17.00
2019-02-17T22:52:08.134Z,16.93
2019-02-17T22:54:36.422Z,19.07
2019-02-17T22:57:04.666Z,17.87
2019-02-17T22:59:32.762Z,14.53
2019-02-17T23:02:01.135Z,16.93
2019-02-17T23:04:29.387Z,17.53
2019-02-17T23:06:57.487Z,16.53
2019-02-17T23:09:25.995Z,13.67
2019-02-17T23:11:54.416Z,18.17
2019-02-17T23:14:22.627Z,12.73
2019-02-17T23:16:50.915Z,16.43
2019-02-17T23:19:19.406Z,14.80
2019-02-17T23:21:47.785Z,16.73
2019-02-17T23:24:16.345Z,16.90
2019-02-17T23:26:44.580Z,15.70
2019-02-17T23:29:12.795Z,14.73
2019-02-17T23:31:41.063Z,17.77
2019-02-17T23:34:09.390Z,19.33
2019-02-17T23:36:37.733Z,20.07
2019-02-17T23:39:06.510Z,23.53
2019-02-17T23:41:34.842Z,23.10
2019-02-17T23:44:03.072Z,24.13
2019-02-17T23:46:31.327Z,20.33
2019-02-17T23:48:59.586Z,17.40
2019-02-17T23:51:27.775Z,16.43
2019-02-17T23:53:55.954Z,13.53
2019-02-17T23:56:24.247Z,15.77
2019-02-17T23:58:52.482Z,14.10
